Time;durP1;ratioP1;P1;durP2;ratioP2;P2;SDS_P1;SDS_P2;PMS_P1;PMS_P2;Temp;Humidity;BMP_temperature;BMP_pressure;BME280_temperature;BME280_humidity;BME280_pressure;Samples;Min_cycle;Max_cycle;Signal;HPM_P1;HPM_P2
2022/09/25 00:01:38;;;;;;;0.43;0.40;;;13.50;84.90;;;;;;4970879;28;20737;-81
2022/09/25 00:04:04;;;;;;;1.02;0.50;;;13.60;85.00;;;;;;4970424;28;20034;-81
2022/09/25 00:06:32;;;;;;;0.47;0.47;;;13.50;84.80;;;;;;4988107;28;20117;-82
2022/09/25 00:09:00;;;;;;;0.98;0.73;;;13.50;84.90;;;;;;4988442;28;20034;-80
2022/09/25 00:11:31;;;;;;;1.00;0.50;;;13.50;85.00;;;;;;4991244;28;20126;-82
2022/09/25 00:13:59;;;;;;;0.55;0.55;;;13.50;85.00;;;;;;4986573;28;20038;-81
2022/09/25 00:16:31;;;;;;;0.50;0.40;;;13.50;84.90;;;;;;4951658;28;20425;-81
2022/09/25 00:21:51;;;;;;;;;;;13.50;84.80;;;;;;4972890;28;20580;-80
2022/09/25 00:24:18;;;;;;;0.30;0.30;;;13.50;84.80;;;;;;4970965;28;20008;-83
2022/09/25 00:26:44;;;;;;;0.32;0.30;;;13.50;84.50;;;;;;4971389;28;20045;-78
2022/09/25 00:29:19;;;;;;;0.30;0.30;;;13.50;84.60;;;;;;4971328;28;20031;-80
2022/09/25 00:31:45;;;;;;;0.85;0.50;;;13.50;84.70;;;;;;4954786;28;20039;-79
2022/09/25 00:34:11;;;;;;;1.60;0.90;;;13.40;84.60;;;;;;4966416;28;20042;-79
2022/09/25 00:36:37;;;;;;;0.57;0.40;;;13.40;84.70;;;;;;4971154;28;20634;-80
2022/09/25 00:39:03;;;;;;;0.47;0.30;;;13.50;84.60;;;;;;4972026;28;20508;-80
2022/09/25 00:41:30;;;;;;;0.98;0.50;;;13.50;84.50;;;;;;4970462;28;20070;-80
2022/09/25 00:43:59;;;;;;;0.68;0.43;;;13.50;84.40;;;;;;4970635;28;20041;-79
2022/09/25 00:46:39;;;;;;;0.40;0.40;;;13.50;84.30;;;;;;4971034;28;20054;-80
2022/09/25 00:49:13;;;;;;;0.38;0.30;;;13.40;84.20;;;;;;4979569;28;20035;-78
2022/09/25 00:51:46;;;;;;;0.47;0.47;;;13.40;84.20;;;;;;4968207;28;20046;-78
2022/09/25 00:54:20;;;;;;;0.52;0.35;;;13.40;84.20;;;;;;4963179;28;20559;-79
2022/09/25 00:56:49;;;;;;;0.35;0.30;;;13.40;84.40;;;;;;4970391;28;20047;-79
2022/09/25 00:59:20;;;;;;;0.40;0.35;;;13.40;84.40;;;;;;5001339;28;20045;-80
2022/09/25 01:01:46;;;;;;;0.40;0.40;;;13.40;84.40;;;;;;4969479;28;20041;-80
2022/09/25 01:04:13;;;;;;;0.40;0.40;;;13.40;84.20;;;;;;4972066;28;20039;-80
2022/09/25 01:06:40;;;;;;;0.73;0.30;;;13.40;84.10;;;;;;4970120;28;20047;-79
2022/09/25 01:09:06;;;;;;;0.30;0.30;;;13.30;84.00;;;;;;4967117;28;20073;-79
2022/09/25 01:11:31;;;;;;;0.28;0.25;;;13.40;84.10;;;;;;4970423;28;20039;-80
2022/09/25 01:14:01;;;;;;;0.65;0.30;;;13.40;84.00;;;;;;4985741;28;20047;-81
2022/09/25 01:16:36;;;;;;;0.30;0.30;;;13.30;83.80;;;;;;4985418;28;20479;-80
2022/09/25 01:19:26;;;;;;;0.47;0.30;;;13.30;83.80;;;;;;4969619;28;20035;-81
2022/09/25 01:22:07;;;;;;;0.82;0.73;;;13.30;83.80;;;;;;4970523;28;20382;-80
2022/09/25 01:24:50;;;;;;;1.52;1.08;;;13.30;83.80;;;;;;4984963;28;20038;-80
2022/09/25 01:27:28;;;;;;;1.35;1.25;;;13.30;83.70;;;;;;4971224;28;20027;-80
2022/09/25 01:29:53;;;;;;;1.55;1.08;;;13.30;83.80;;;;;;4981955;28;20043;-80
2022/09/25 01:32:26;;;;;;;1.85;1.60;;;13.30;83.80;;;;;;4968700;28;20031;-80
2022/09/25 01:35:24;;;;;;;2.05;1.75;;;13.30;83.80;;;;;;4963995;28;20533;-81
2022/09/25 01:38:02;;;;;;;2.42;1.88;;;13.30;83.80;;;;;;4960507;28;20040;-81
2022/09/25 01:40:40;;;;;;;2.20;1.95;;;13.30;83.60;;;;;;4969394;28;20058;-81
2022/09/25 01:43:17;;;;;;;2.47;1.50;;;13.30;83.60;;;;;;4969996;28;20039;-79
2022/09/25 01:45:58;;;;;;;1.65;1.55;;;13.20;83.40;;;;;;5001736;28;20039;-80
2022/09/25 01:48:31;;;;;;;1.77;1.38;;;13.20;83.60;;;;;;4969797;28;20548;-80
2022/09/25 01:51:04;;;;;;;1.48;1.13;;;13.20;83.50;;;;;;4975267;28;20045;-80
2022/09/25 01:53:39;;;;;;;1.02;0.88;;;13.20;83.50;;;;;;4972124;28;20086;-80
2022/09/25 01:56:13;;;;;;;1.42;0.93;;;13.20;83.30;;;;;;4974842;28;20035;-82
2022/09/25 01:58:49;;;;;;;0.50;0.50;;;13.20;83.10;;;;;;4972330;28;20575;-80
2022/09/25 02:01:25;;;;;;;0.40;0.32;;;13.10;83.10;;;;;;5005016;28;20049;-81
2022/09/25 02:03:59;;;;;;;0.47;0.47;;;13.10;82.90;;;;;;4973503;28;20532;-81
2022/09/25 02:06:28;;;;;;;0.40;0.30;;;13.10;82.80;;;;;;4980247;28;20065;-80
2022/09/25 02:09:06;;;;;;;0.35;0.30;;;13.10;82.80;;;;;;4974676;28;20054;-80
2022/09/25 02:11:38;;;;;;;0.50;0.30;;;13.10;82.70;;;;;;4987926;28;20501;-80
2022/09/25 02:14:19;;;;;;;0.50;0.30;;;13.10;82.60;;;;;;4987613;28;20418;-80
2022/09/25 02:16:49;;;;;;;3.20;0.43;;;13.00;82.80;;;;;;4972930;28;20581;-80
2022/09/25 02:22:13;;;;;;;0.45;0.20;;;13.00;82.80;;;;;;4973605;28;20438;-81
2022/09/25 02:25:08;;;;;;;0.30;0.20;;;13.00;82.80;;;;;;4971681;28;20418;-80
2022/09/25 02:27:34;;;;;;;0.20;0.15;;;13.00;82.70;;;;;;4986150;28;20398;-80
2022/09/25 02:30:00;;;;;;;0.32;0.20;;;13.00;83.20;;;;;;4973440;28;20089;-81
2022/09/25 02:32:31;;;;;;;0.20;0.20;;;13.00;82.60;;;;;;4989464;28;20530;-80
2022/09/25 02:35:01;;;;;;;0.52;0.30;;;13.00;82.70;;;;;;4984123;28;20449;-80
2022/09/25 02:37:31;;;;;;;0.30;0.22;;;13.00;82.40;;;;;;4973564;28;20043;-80
2022/09/25 02:40:00;;;;;;;0.10;0.10;;;13.00;82.30;;;;;;4983890;28;20046;-80
2022/09/25 02:42:48;;;;;;;0.22;0.20;;;13.00;82.20;;;;;;4972672;28;20529;-80
2022/09/25 02:45:45;;;;;;;0.20;0.20;;;13.00;82.20;;;;;;5005392;28;20520;-80
2022/09/25 02:48:20;;;;;;;0.10;0.10;;;13.00;82.00;;;;;;4972548;28;20561;-80
2022/09/25 02:51:04;;;;;;;;;;;13.00;82.00;;;;;;4987471;28;20070;-79
2022/09/25 02:53:36;;;;;;;0.30;0.20;;;13.00;81.70;;;;;;4972815;28;20309;-79
2022/09/25 02:56:16;;;;;;;0.10;0.10;;;13.00;81.70;;;;;;4986631;28;20031;-79
2022/09/25 02:58:48;;;;;;;0.13;0.10;;;13.00;81.80;;;;;;5002862;28;20051;-78
2022/09/25 03:01:17;;;;;;;0.20;0.10;;;13.00;81.50;;;;;;5003673;28;20062;-78
2022/09/25 03:03:45;;;;;;;0.17;0.10;;;13.00;81.50;;;;;;4973265;28;20054;-80
2022/09/25 03:06:12;;;;;;;0.32;0.10;;;13.00;81.40;;;;;;5003524;28;20038;-80
2022/09/25 03:08:45;;;;;;;0.47;0.30;;;12.90;81.40;;;;;;4970892;28;20073;-79
2022/09/25 03:11:14;;;;;;;0.13;0.13;;;12.90;81.50;;;;;;4973158;28;20041;-79
2022/09/25 03:13:41;;;;;;;0.38;0.20;;;12.90;81.50;;;;;;4972335;28;20039;-79
2022/09/25 03:16:13;;;;;;;0.20;0.10;;;12.90;81.20;;;;;;4970898;28;20037;-80
2022/09/25 03:18:39;;;;;;;0.35;0.20;;;12.90;81.20;;;;;;5004946;28;20223;-80
2022/09/25 03:21:05;;;;;;;0.10;0.10;;;12.80;81.30;;;;;;4965933;28;20214;-79
2022/09/25 03:23:31;;;;;;;0.20;0.20;;;12.80;81.40;;;;;;4972475;28;20125;-79
2022/09/25 03:25:58;;;;;;;0.30;0.30;;;12.80;81.50;;;;;;4955754;28;20042;-80
2022/09/25 03:28:25;;;;;;;0.30;0.30;;;12.80;81.60;;;;;;4968299;28;20042;-80
2022/09/25 03:31:05;;;;;;;0.38;0.38;;;12.90;81.50;;;;;;4970635;28;20572;-79
2022/09/25 03:33:36;;;;;;;0.50;0.50;;;12.90;81.20;;;;;;4988223;28;20037;-80
2022/09/25 03:36:09;;;;;;;1.58;1.10;;;12.90;81.20;;;;;;4987758;28;20029;-79
2022/09/25 03:38:36;;;;;;;1.65;0.40;;;12.90;81.00;;;;;;4970809;28;20035;-79
2022/09/25 03:41:07;;;;;;;1.20;0.60;;;12.90;81.00;;;;;;4997161;28;20042;-78
2022/09/25 03:43:39;;;;;;;0.60;0.60;;;12.80;81.00;;;;;;4971029;28;20058;-78
2022/09/25 03:46:07;;;;;;;1.20;0.50;;;12.80;80.90;;;;;;4986511;28;20046;-79
2022/09/25 03:48:34;;;;;;;0.65;0.50;;;12.80;80.70;;;;;;4983530;28;20413;-80
2022/09/25 03:51:01;;;;;;;0.90;0.68;;;12.80;80.90;;;;;;4972297;28;20051;-78
2022/09/25 03:53:31;;;;;;;0.30;0.30;;;12.80;80.70;;;;;;4972167;28;20062;-78
2022/09/25 03:55:57;;;;;;;0.55;0.45;;;12.80;80.70;;;;;;4986430;28;20115;-79
2022/09/25 03:58:23;;;;;;;0.93;0.45;;;12.80;80.60;;;;;;4970324;28;20066;-80
2022/09/25 04:00:49;;;;;;;1.10;0.40;;;12.80;80.70;;;;;;5002460;28;20467;-80
2022/09/25 04:03:21;;;;;;;0.30;0.20;;;12.80;80.80;;;;;;4971772;28;20109;-80
2022/09/25 04:05:47;;;;;;;0.47;0.30;;;12.80;80.50;;;;;;4970911;28;20520;-79
2022/09/25 04:08:13;;;;;;;0.20;0.20;;;12.80;80.50;;;;;;4978010;28;20027;-80
2022/09/25 04:10:39;;;;;;;0.47;0.20;;;12.80;80.40;;;;;;4954484;28;20260;-79
2022/09/25 04:13:06;;;;;;;0.65;0.10;;;12.80;80.30;;;;;;4971896;28;20087;-80
2022/09/25 04:15:32;;;;;;;0.20;0.10;;;12.70;80.40;;;;;;4986137;28;20034;-80
2022/09/25 04:17:58;;;;;;;0.25;0.25;;;12.70;80.50;;;;;;4972194;28;20042;-80
2022/09/25 04:20:24;;;;;;;0.60;0.30;;;12.80;80.50;;;;;;4969400;28;20482;-80
2022/09/25 04:22:50;;;;;;;0.20;0.20;;;12.80;80.30;;;;;;4986020;28;20038;-79
2022/09/25 04:25:16;;;;;;;0.30;0.30;;;12.70;80.30;;;;;;4986653;28;20030;-79
2022/09/25 04:27:44;;;;;;;0.17;0.15;;;12.80;80.30;;;;;;4971431;28;20041;-81
2022/09/25 04:30:16;;;;;;;0.68;0.30;;;12.70;80.70;;;;;;4985959;28;20034;-81
2022/09/25 04:35:26;;;;;;;1.30;0.40;;;12.70;80.00;;;;;;4953571;28;20038;-80
2022/09/25 04:37:55;;;;;;;0.43;0.40;;;12.70;80.00;;;;;;4955320;28;20035;-80
2022/09/25 04:40:21;;;;;;;0.47;0.20;;;12.70;80.20;;;;;;4970206;28;20035;-80
2022/09/25 04:42:46;;;;;;;0.50;0.50;;;12.70;80.00;;;;;;5003842;28;20041;-81
2022/09/25 04:45:13;;;;;;;0.90;0.40;;;12.70;80.00;;;;;;5003842;28;20061;-78
2022/09/25 04:47:39;;;;;;;1.70;0.30;;;12.70;79.90;;;;;;4969837;28;21838;-78
2022/09/25 04:50:05;;;;;;;0.52;0.22;;;12.70;80.10;;;;;;4969929;28;20046;-79
2022/09/25 04:52:31;;;;;;;0.50;0.30;;;12.70;79.90;;;;;;4984220;28;20055;-79
2022/09/25 04:54:57;;;;;;;0.50;0.32;;;12.70;80.00;;;;;;4969437;28;20039;-78
2022/09/25 04:57:25;;;;;;;0.22;0.20;;;12.70;79.60;;;;;;4969847;28;20034;-78
2022/09/25 04:59:51;;;;;;;0.40;0.28;;;12.70;79.60;;;;;;4970584;28;20038;-79
2022/09/25 05:02:17;;;;;;;0.45;0.28;;;12.70;79.80;;;;;;4979879;28;20027;-79
2022/09/25 05:04:43;;;;;;;1.27;0.20;;;12.60;79.60;;;;;;4969389;28;20137;-79
2022/09/25 05:07:09;;;;;;;0.65;0.45;;;12.70;79.70;;;;;;4971703;28;20045;-81
2022/09/25 05:09:34;;;;;;;0.50;0.40;;;12.70;79.70;;;;;;4977330;28;20093;-79
2022/09/25 05:12:00;;;;;;;0.73;0.40;;;12.70;79.60;;;;;;4970186;28;20421;-79
2022/09/25 05:14:26;;;;;;;0.77;0.50;;;12.60;79.60;;;;;;4970628;28;20565;-80
2022/09/25 05:16:52;;;;;;;1.27;0.50;;;12.60;79.70;;;;;;4969668;28;20047;-80
2022/09/25 05:19:18;;;;;;;0.57;0.57;;;12.60;79.60;;;;;;4968143;28;20066;-80
2022/09/25 05:21:44;;;;;;;0.75;0.60;;;12.60;79.80;;;;;;4966610;28;20130;-80
2022/09/25 05:24:12;;;;;;;0.52;0.30;;;12.60;79.90;;;;;;4974191;28;20031;-79
2022/09/25 05:26:39;;;;;;;1.42;0.60;;;12.50;80.00;;;;;;4967888;28;20122;-79
2022/09/25 05:29:05;;;;;;;0.68;0.63;;;12.60;80.60;;;;;;4973931;28;20046;-79
2022/09/25 05:31:31;;;;;;;0.47;0.47;;;12.50;80.00;;;;;;4991420;28;20593;-80
2022/09/25 05:33:58;;;;;;;0.43;0.43;;;12.60;80.00;;;;;;4984554;28;20592;-81
2022/09/25 05:36:24;;;;;;;0.68;0.47;;;12.60;79.90;;;;;;4974962;28;20062;-80
2022/09/25 05:38:50;;;;;;;0.82;0.47;;;12.60;80.00;;;;;;4957510;28;20042;-80
2022/09/25 05:41:16;;;;;;;0.77;0.47;;;12.60;79.80;;;;;;4975605;28;20499;-81
2022/09/25 05:43:46;;;;;;;0.50;0.50;;;12.60;79.80;;;;;;4972567;28;20039;-80
2022/09/25 05:46:12;;;;;;;0.40;0.40;;;12.60;79.80;;;;;;4973306;28;20049;-80
2022/09/25 05:48:39;;;;;;;0.30;0.30;;;12.60;79.80;;;;;;4972548;28;20034;-80
2022/09/25 05:51:05;;;;;;;0.32;0.30;;;12.60;79.80;;;;;;4974150;28;20086;-80
2022/09/25 05:53:31;;;;;;;0.82;0.30;;;12.60;79.90;;;;;;4979949;28;20537;-83
2022/09/25 05:56:02;;;;;;;0.32;0.30;;;12.50;79.90;;;;;;4963573;28;20134;-82
2022/09/25 05:58:29;;;;;;;0.30;0.30;;;12.50;80.00;;;;;;4976037;28;20065;-83
2022/09/25 06:01:05;;;;;;;0.40;0.40;;;12.50;80.10;;;;;;5006482;28;20035;-83
2022/09/25 06:03:32;;;;;;;0.40;0.40;;;12.60;79.90;;;;;;4973744;28;20424;-83
2022/09/25 06:05:59;;;;;;;0.57;0.40;;;12.60;79.80;;;;;;4974689;28;20401;-82
2022/09/25 06:08:26;;;;;;;0.80;0.50;;;12.60;79.80;;;;;;4954096;28;20126;-82
2022/09/25 06:10:53;;;;;;;0.43;0.40;;;12.60;79.80;;;;;;4961727;28;20078;-82
2022/09/25 06:13:21;;;;;;;0.65;0.63;;;12.60;79.80;;;;;;4958286;28;20042;-81
2022/09/25 06:15:49;;;;;;;0.60;0.60;;;12.60;79.70;;;;;;4977456;28;20035;-82
2022/09/25 06:18:15;;;;;;;1.65;0.55;;;12.60;79.80;;;;;;4957271;28;20030;-81
2022/09/25 06:20:42;;;;;;;0.77;0.50;;;12.50;80.00;;;;;;4992769;28;20061;-82
2022/09/25 06:23:08;;;;;;;0.50;0.50;;;12.50;80.10;;;;;;4995741;28;20047;-80
2022/09/25 06:25:35;;;;;;;0.95;0.80;;;12.60;79.80;;;;;;4993385;28;20093;-82
2022/09/25 06:28:01;;;;;;;2.28;0.90;;;12.50;79.80;;;;;;4974678;28;20034;-82
2022/09/25 06:30:35;;;;;;;2.67;1.00;;;12.50;79.90;;;;;;4977103;28;20042;-82
2022/09/25 06:33:06;;;;;;;0.77;0.77;;;12.50;80.00;;;;;;4973579;28;20379;-83
2022/09/25 06:35:33;;;;;;;0.70;0.65;;;12.40;80.00;;;;;;5007189;28;20031;-79
2022/09/25 06:38:00;;;;;;;0.65;0.65;;;12.40;80.20;;;;;;4975134;28;20035;-80
2022/09/25 06:40:28;;;;;;;0.75;0.50;;;12.50;80.30;;;;;;4977908;28;20038;-79
2022/09/25 06:42:55;;;;;;;0.55;0.55;;;12.50;80.30;;;;;;4975642;28;20525;-81
2022/09/25 06:45:21;;;;;;;0.60;0.60;;;12.50;80.20;;;;;;4959109;28;20046;-79
2022/09/25 06:47:47;;;;;;;0.50;0.50;;;12.50;80.00;;;;;;4994415;28;20030;-78
2022/09/25 06:50:13;;;;;;;3.83;0.73;;;12.50;80.50;;;;;;4974850;28;20418;-79
2022/09/25 06:52:43;;;;;;;0.57;0.50;;;12.50;83.20;;;;;;4992336;28;20100;-82
2022/09/25 06:55:10;;;;;;;0.60;0.60;;;12.60;83.40;;;;;;4992900;28;20039;-82
2022/09/25 06:57:36;;;;;;;0.73;0.57;;;12.70;82.80;;;;;;5003524;28;20059;-78
2022/09/25 07:00:04;;;;;;;0.70;0.68;;;12.80;82.40;;;;;;4999347;28;20062;-82
2022/09/25 07:05:15;;;;;;;1.20;0.90;;;12.90;81.60;;;;;;4977663;28;20035;-83
2022/09/25 07:07:43;;;;;;;2.28;1.08;;;12.90;81.50;;;;;;4973823;28;20090;-80
2022/09/25 07:10:09;;;;;;;1.38;1.08;;;13.00;81.40;;;;;;4977324;28;20557;-80
2022/09/25 07:12:48;;;;;;;1.27;0.70;;;13.00;81.20;;;;;;4976320;28;20047;-81
2022/09/25 07:24:18;;;;;;;1.17;0.80;;;13.20;80.60;;;;;;4928256;29;20638;-86
2022/09/25 07:27:39;;;;;;;0.85;0.75;;;13.20;80.50;;;;;;4927330;29;20062;-86
2022/09/25 07:30:07;;;;;;;1.15;1.00;;;13.20;80.80;;;;;;4866796;29;20116;-83
2022/09/25 07:33:27;;;;;;;2.03;1.17;;;13.20;80.60;;;;;;4811694;29;20098;-81
2022/09/25 07:36:51;;;;;;;2.22;1.45;;;13.30;80.10;;;;;;4823760;29;20042;-83
2022/09/25 07:39:23;;;;;;;2.60;2.20;;;13.30;79.70;;;;;;4822744;29;20042;-80
2022/09/25 07:42:41;;;;;;;2.63;1.88;;;13.30;78.80;;;;;;4816679;29;20046;-77
2022/09/25 07:46:01;;;;;;;3.28;1.88;;;13.30;78.60;;;;;;4846639;29;20422;-79
2022/09/25 07:48:59;;;;;;;3.78;1.40;;;13.30;80.00;;;;;;4808654;29;20069;-84
2022/09/25 07:51:53;;;;;;;1.05;1.00;;;13.30;81.70;;;;;;4827502;29;20161;-82
2022/09/25 07:55:13;;;;;;;3.22;1.00;;;13.30;82.20;;;;;;4819063;29;20037;-79
2022/09/25 07:57:45;;;;;;;3.65;1.00;;;13.40;82.30;;;;;;4814177;29;20042;-82
2022/09/25 08:00:15;;;;;;;3.15;1.23;;;13.50;82.30;;;;;;4841075;29;20049;-89
2022/09/25 08:03:13;;;;;;;5.80;1.13;;;13.60;81.30;;;;;;4859681;29;20041;-83
2022/09/25 08:09:49;;;;;;;1.92;1.48;;;13.70;79.40;;;;;;4956531;28;20053;-86
2022/09/25 08:12:44;;;;;;;;;;;;;;;;;;;;;
2022/09/25 08:15:31;;;;;;;4.45;1.45;;;13.70;79.40;;;;;;4980433;28;20039;-81
2022/09/25 08:18:21;;;;;;;3.92;1.50;;;13.80;79.50;;;;;;4972395;28;20129;-86
2022/09/25 08:20:55;;;;;;;1.70;1.20;;;13.80;79.40;;;;;;4980554;28;20037;-85
2022/09/25 08:28:42;;;;;;;2.08;0.93;;;13.80;79.30;;;;;;4936934;28;20549;-90
2022/09/25 08:31:15;;;;;;;2.00;1.20;;;13.90;78.10;;;;;;4955506;29;20110;-87
2022/09/25 08:42:03;;;;;;;1.00;0.73;;;13.80;76.50;;;;;;4917933;29;20582;-91
2022/09/25 09:03:00;;;;;;;1.70;0.65;;;13.60;76.50;;;;;;4777960;29;20043;-90
2022/09/25 09:07:30;;;;;;;1.65;0.55;;;13.70;76.80;;;;;;4776928;29;20056;-88
2022/09/25 09:14:58;;;;;;;;;;;;;;;;;;;;;
2022/09/25 09:30:36;;;;;;;1.05;0.98;;;13.60;77.00;;;;;;4815456;29;20060;-89
2022/09/25 09:33:50;;;;;;;2.10;1.30;;;13.70;76.50;;;;;;4880955;29;20080;-87
2022/09/25 09:36:21;;;;;;;1.75;1.10;;;13.60;75.80;;;;;;4810289;29;20129;-88
2022/09/25 09:39:18;;;;;;;1.80;1.30;;;13.60;75.70;;;;;;4868415;29;20187;-87
2022/09/25 09:41:55;;;;;;;1.52;1.42;;;13.50;75.90;;;;;;4840093;29;20056;-88
2022/09/25 09:44:26;;;;;;;1.50;1.40;;;13.60;76.40;;;;;;4858641;29;20168;-86
2022/09/25 09:47:07;;;;;;;1.77;1.50;;;13.50;76.50;;;;;;4869669;29;20065;-88
2022/09/25 09:50:17;;;;;;;3.00;1.50;;;13.50;76.70;;;;;;4885229;29;20072;-88
2022/09/25 09:52:46;;;;;;;1.90;1.40;;;13.50;76.80;;;;;;4865617;29;20049;-88
2022/09/25 09:55:43;;;;;;;1.60;1.50;;;13.60;76.80;;;;;;4924391;29;20032;-88
2022/09/25 09:58:41;;;;;;;1.88;1.77;;;13.60;76.40;;;;;;4908320;29;20535;-88
2022/09/25 10:01:09;;;;;;;2.17;1.85;;;13.50;75.90;;;;;;4927154;28;20471;-87
2022/09/25 10:03:37;;;;;;;2.28;1.98;;;13.50;76.30;;;;;;4981890;28;20469;-87
2022/09/25 10:06:15;;;;;;;2.00;1.83;;;13.50;76.50;;;;;;4990332;28;20035;-88
2022/09/25 10:08:42;;;;;;;2.05;1.83;;;13.50;76.60;;;;;;4989937;28;20042;-88
2022/09/25 10:11:18;;;;;;;2.03;1.83;;;13.50;76.50;;;;;;4970256;28;20041;-88
2022/09/25 10:13:45;;;;;;;2.50;2.00;;;13.50;76.60;;;;;;4993826;28;20038;-87
2022/09/25 10:16:18;;;;;;;1.70;1.58;;;13.50;76.50;;;;;;4961846;28;20058;-90
2022/09/25 10:19:08;;;;;;;2.13;1.92;;;13.50;76.70;;;;;;5011607;28;20034;-89
2022/09/25 10:21:40;;;;;;;2.38;2.03;;;13.50;76.60;;;;;;5004150;28;20061;-86
2022/09/25 10:24:06;;;;;;;2.33;2.13;;;13.50;77.00;;;;;;4972133;28;20041;-87
2022/09/25 10:26:37;;;;;;;2.30;2.10;;;13.50;77.80;;;;;;4971456;28;20039;-90
2022/09/25 10:29:24;;;;;;;2.42;1.90;;;13.40;77.00;;;;;;4988928;28;20124;-83
2022/09/25 10:32:02;;;;;;;2.88;2.35;;;13.40;77.20;;;;;;4967807;28;20039;-85
2022/09/25 10:34:30;;;;;;;2.67;2.38;;;13.30;77.50;;;;;;4985713;28;20035;-84
2022/09/25 10:36:56;;;;;;;2.90;2.38;;;13.40;77.20;;;;;;4991926;28;20497;-84
2022/09/25 10:39:31;;;;;;;3.45;2.85;;;13.40;77.40;;;;;;5006761;28;20045;-83
2022/09/25 10:42:02;;;;;;;2.78;2.42;;;13.40;76.90;;;;;;4971922;28;20026;-85
2022/09/25 10:44:34;;;;;;;3.17;2.60;;;13.40;76.80;;;;;;4984332;28;20035;-85
2022/09/25 10:50:20;;;;;;;3.15;2.53;;;13.50;77.20;;;;;;4991172;28;20034;-85
2022/09/25 10:52:51;;;;;;;4.47;2.85;;;13.50;77.20;;;;;;4992518;28;20169;-87
2022/09/25 10:55:31;;;;;;;3.22;2.35;;;13.40;77.00;;;;;;4988858;28;20117;-85
2022/09/25 10:58:15;;;;;;;2.40;2.10;;;13.40;77.30;;;;;;4971155;28;20058;-85
2022/09/25 11:00:52;;;;;;;2.78;2.13;;;13.30;78.10;;;;;;4958501;28;20518;-85
2022/09/25 11:03:29;;;;;;;2.38;2.17;;;13.30;77.90;;;;;;4970267;28;20122;-83
2022/09/25 11:06:04;;;;;;;2.42;2.00;;;13.40;77.90;;;;;;4975060;28;20072;-85
2022/09/25 11:08:33;;;;;;;3.47;2.00;;;13.40;78.20;;;;;;4990907;28;20686;-86
2022/09/25 11:11:02;;;;;;;2.15;1.92;;;13.40;78.40;;;;;;4989908;28;20034;-85
2022/09/25 11:13:36;;;;;;;2.10;1.90;;;13.40;78.70;;;;;;4975081;28;20513;-84
2022/09/25 11:16:09;;;;;;;3.08;2.70;;;13.40;78.80;;;;;;4991854;28;20030;-84
2022/09/25 11:19:03;;;;;;;3.08;2.70;;;13.40;78.30;;;;;;4959307;28;20031;-83
2022/09/25 11:21:37;;;;;;;3.35;2.65;;;13.40;78.10;;;;;;4993636;28;20042;-86
2022/09/25 11:24:40;;;;;;;4.18;3.00;;;13.50;78.00;;;;;;4980006;28;20501;-88
2022/09/25 11:27:23;;;;;;;3.97;3.58;;;13.50;78.00;;;;;;4965080;28;20046;-87
2022/09/25 11:30:01;;;;;;;4.85;4.35;;;13.50;78.00;;;;;;5001974;28;20050;-87
2022/09/25 11:32:40;;;;;;;5.30;4.80;;;13.50;78.10;;;;;;4974644;28;20042;-85
2022/09/25 11:35:28;;;;;;;4.55;4.15;;;13.50;77.80;;;;;;4992644;28;20050;-85
2022/09/25 11:41:11;;;;;;;4.82;3.80;;;13.50;77.80;;;;;;4978307;28;20038;-84
2022/09/25 11:41:29;;;;;;;3.70;3.33;;;13.40;77.50;;;;;;4997077;28;20133;-89
2022/09/25 11:44:07;;;;;;;4.10;3.25;;;13.40;77.70;;;;;;4994444;28;20035;-89
2022/09/25 11:46:40;;;;;;;4.10;3.28;;;13.40;78.10;;;;;;5007646;28;20399;-84
2022/09/25 11:49:30;;;;;;;2.85;2.65;;;13.40;77.80;;;;;;4975125;28;20060;-83
2022/09/25 11:52:17;;;;;;;3.25;2.95;;;13.40;77.80;;;;;;4992513;28;20038;-83
2022/09/25 11:54:56;;;;;;;3.17;2.83;;;13.40;78.00;;;;;;4990105;28;20034;-81
2022/09/25 11:57:42;;;;;;;3.90;3.45;;;13.40;78.10;;;;;;5005097;28;20073;-83
2022/09/25 12:00:25;;;;;;;3.78;3.22;;;13.50;78.00;;;;;;4973428;28;20041;-84
2022/09/25 12:03:09;;;;;;;3.63;3.30;;;13.50;78.40;;;;;;4991236;28;20045;-83
2022/09/25 12:05:57;;;;;;;4.80;3.60;;;13.50;77.80;;;;;;5008768;28;20038;-93
2022/09/25 12:08:46;;;;;;;5.15;3.55;;;13.50;77.70;;;;;;4975412;28;20077;-85
2022/09/25 12:12:10;;;;;;;4.65;4.03;;;13.50;77.80;;;;;;4992465;28;20231;-84
2022/09/25 12:14:44;;;;;;;3.90;3.28;;;13.40;77.70;;;;;;4941106;28;20587;-84
2022/09/25 12:17:25;;;;;;;5.03;3.75;;;13.40;80.10;;;;;;5005781;28;20030;-84
2022/09/25 12:19:51;;;;;;;5.07;3.72;;;13.40;80.90;;;;;;4974922;28;20129;-84
2022/09/25 12:23:19;;;;;;;5.68;4.00;;;13.40;80.40;;;;;;4973384;28;20137;-85
2022/09/25 12:26:03;;;;;;;;;;;13.40;80.10;;;;;;4935478;28;20042;-85
2022/09/25 12:28:56;;;;;;;5.65;3.72;;;13.50;79.80;;;;;;4933189;29;20098;-83
2022/09/25 12:31:38;;;;;;;4.28;3.72;;;13.50;79.90;;;;;;4925771;28;20553;-85
2022/09/25 12:34:25;;;;;;;4.25;3.90;;;13.50;79.90;;;;;;4929419;29;20047;-84
2022/09/25 12:37:40;;;;;;;5.40;3.95;;;13.40;79.80;;;;;;4949430;29;20118;-84
2022/09/25 12:40:26;;;;;;;5.95;4.50;;;13.40;79.70;;;;;;4845183;29;20044;-84
2022/09/25 12:43:35;;;;;;;5.45;4.10;;;13.50;79.70;;;;;;4864223;29;20036;-81
2022/09/25 12:46:28;;;;;;;6.75;5.25;;;13.40;79.90;;;;;;4878675;29;20048;-82
2022/09/25 12:49:04;;;;;;;5.68;4.80;;;13.40;80.00;;;;;;4826007;29;20041;-82
2022/09/25 12:51:48;;;;;;;6.78;5.15;;;13.40;80.00;;;;;;4884768;29;20063;-84
2022/09/25 12:54:31;;;;;;;7.40;5.78;;;13.40;79.80;;;;;;4871156;29;20034;-82
2022/09/25 12:57:24;;;;;;;6.40;5.78;;;13.40;79.80;;;;;;4888074;29;20453;-83
2022/09/25 12:59:59;;;;;;;6.65;5.75;;;13.40;79.90;;;;;;4908235;29;20048;-84
2022/09/25 13:02:25;;;;;;;6.30;5.70;;;13.50;79.70;;;;;;4927512;29;20503;-85
2022/09/25 13:05:31;;;;;;;7.80;5.82;;;13.40;80.20;;;;;;4898433;29;20043;-86
2022/09/25 13:08:24;;;;;;;7.00;5.47;;;13.40;79.60;;;;;;4881517;29;20041;-83
2022/09/25 13:11:05;;;;;;;6.78;5.93;;;13.40;79.50;;;;;;4921340;29;20601;-83
2022/09/25 13:13:38;;;;;;;7.22;5.57;;;13.40;79.60;;;;;;4931515;29;20345;-81
2022/09/25 13:16:05;;;;;;;6.03;5.43;;;13.50;79.90;;;;;;4941455;28;20575;-80
2022/09/25 13:18:34;;;;;;;5.88;5.38;;;13.50;80.00;;;;;;4973789;28;20030;-82
2022/09/25 13:21:34;;;;;;;7.63;5.45;;;13.50;79.90;;;;;;5017325;28;20049;-80
2022/09/25 13:24:07;;;;;;;6.07;5.47;;;13.50;79.70;;;;;;4988334;28;20100;-80
2022/09/25 13:26:43;;;;;;;5.95;5.25;;;13.50;79.80;;;;;;4990241;28;20100;-81
2022/09/25 13:29:37;;;;;;;6.13;5.45;;;13.50;79.50;;;;;;4973689;28;20038;-81
2022/09/25 13:32:24;;;;;;;7.15;5.43;;;13.50;79.50;;;;;;4990316;28;20046;-79
2022/09/25 13:35:01;;;;;;;6.75;5.22;;;13.50;79.20;;;;;;4991599;28;20046;-81
2022/09/25 13:37:36;;;;;;;5.63;5.13;;;13.50;79.10;;;;;;4999230;28;20049;-81
2022/09/25 13:43:20;;;;;;;4.65;4.25;;;13.50;79.00;;;;;;4977163;28;20034;-80
2022/09/25 13:46:20;;;;;;;6.07;4.40;;;13.50;78.60;;;;;;4992792;28;20161;-80
2022/09/25 13:48:47;;;;;;;5.15;4.15;;;13.50;78.40;;;;;;5017141;28;20045;-80
2022/09/25 13:51:19;;;;;;;4.50;3.85;;;13.50;78.40;;;;;;4978690;28;20417;-80
2022/09/25 13:53:58;;;;;;;4.00;3.60;;;13.40;78.30;;;;;;5003710;28;20034;-82
2022/09/25 13:56:40;;;;;;;3.33;3.03;;;13.40;78.10;;;;;;4980229;28;20161;-81
2022/09/25 13:59:09;;;;;;;4.05;3.65;;;13.50;78.20;;;;;;4987647;28;20121;-79
2022/09/25 14:01:37;;;;;;;4.32;3.92;;;13.50;78.20;;;;;;5004486;28;20141;-80
2022/09/25 14:04:38;;;;;;;4.30;3.90;;;13.40;78.10;;;;;;4970747;28;20410;-80
2022/09/25 14:07:25;;;;;;;4.35;3.65;;;13.40;78.30;;;;;;4960288;28;20405;-79
2022/09/25 14:09:57;;;;;;;4.13;3.55;;;13.50;78.40;;;;;;4974644;28;20034;-81
2022/09/25 14:12:33;;;;;;;4.65;3.90;;;13.50;78.50;;;;;;4989198;28;20100;-83
2022/09/25 14:15:26;;;;;;;4.63;3.95;;;13.50;78.60;;;;;;4975120;28;20549;-84
2022/09/25 14:17:54;;;;;;;3.45;3.15;;;13.50;78.60;;;;;;4974555;28;20409;-83
2022/09/25 14:20:42;;;;;;;3.67;3.35;;;13.50;78.80;;;;;;5007288;28;21311;-81
2022/09/25 14:23:26;;;;;;;6.38;3.20;;;13.40;78.30;;;;;;4975489;28;20084;-83
2022/09/25 14:26:06;;;;;;;4.65;3.28;;;13.50;78.40;;;;;;4986890;28;20504;-82
2022/09/25 14:28:43;;;;;;;3.92;3.38;;;13.40;78.40;;;;;;4958352;28;20037;-84
2022/09/25 14:31:33;;;;;;;4.63;3.58;;;13.40;78.40;;;;;;4990560;28;20042;-83
2022/09/25 14:34:18;;;;;;;3.65;3.10;;;13.50;78.40;;;;;;4992499;28;20372;-82
2022/09/25 14:37:10;;;;;;;3.63;3.17;;;13.50;78.00;;;;;;4986857;28;20047;-80
2022/09/25 14:39:48;;;;;;;4.75;3.63;;;13.50;78.00;;;;;;4993196;28;20528;-80
2022/09/25 14:42:16;;;;;;;5.25;4.00;;;13.40;77.80;;;;;;4989477;28;20481;-81
2022/09/25 14:45:16;;;;;;;5.85;3.65;;;13.30;77.70;;;;;;4988338;28;20038;-82
2022/09/25 14:47:46;;;;;;;8.52;3.30;;;13.40;79.70;;;;;;4991281;28;20039;-82
2022/09/25 14:50:25;;;;;;;4.57;3.50;;;13.40;80.70;;;;;;4983302;28;20142;-83
2022/09/25 14:52:56;;;;;;;4.35;3.60;;;13.50;79.10;;;;;;4980968;28;20038;-82
2022/09/25 14:55:27;;;;;;;4.18;3.20;;;13.50;77.90;;;;;;5012302;28;20428;-82
2022/09/25 14:57:57;;;;;;;4.10;3.70;;;13.60;77.20;;;;;;5009905;28;20038;-83